sensor_id;sensor_type;location;lat;lon;timestamp;P1;durP1;ratioP1;P2;durP2;ratioP2
25169;SDS011;13129;48.012;10.352;2022-10-31T04:31:03;8.02;;;5.95;;
25169;SDS011;13129;48.012;10.352;2022-10-31T04:33:29;8.77;;;5.30;;
25169;SDS011;13129;48.012;10.352;2022-10-31T04:35:54;12.02;;;6.13;;
25169;SDS011;13129;48.012;10.352;2022-10-31T04:38:20;7.80;;;5.18;;
25169;SDS011;13129;48.012;10.352;2022-10-31T04:40:46;8.27;;;5.22;;
25169;SDS011;13129;48.012;10.352;2022-10-31T04:43:11;7.25;;;5.07;;
25169;SDS011;13129;48.012;10.352;2022-10-31T04:45:37;7.18;;;5.07;;
25169;SDS011;13129;48.012;10.352;2022-10-31T04:48:03;6.30;;;5.40;;
25169;SDS011;13129;48.012;10.352;2022-10-31T04:50:29;6.85;;;5.30;;
25169;SDS011;13129;48.012;10.352;2022-10-31T04:52:54;6.97;;;6.00;;
25169;SDS011;13129;48.012;10.352;2022-10-31T04:55:20;8.20;;;5.70;;
25169;SDS011;13129;48.012;10.352;2022-10-31T04:57:46;7.10;;;4.82;;
25169;SDS011;13129;48.012;10.352;2022-10-31T05:00:14;7.47;;;5.18;;
25169;SDS011;13129;48.012;10.352;2022-10-31T05:02:44;7.47;;;5.10;;
25169;SDS011;13129;48.012;10.352;2022-10-31T05:05:14;7.05;;;5.35;;
25169;SDS011;13129;48.012;10.352;2022-10-31T05:07:41;9.02;;;5.75;;
25169;SDS011;13129;48.012;10.352;2022-10-31T05:10:12;11.65;;;6.38;;
25169;SDS011;13129;48.012;10.352;2022-10-31T05:12:45;7.43;;;5.57;;
25169;SDS011;13129;48.012;10.352;2022-10-31T05:15:15;10.15;;;5.28;;
25169;SDS011;13129;48.012;10.352;2022-10-31T05:17:42;8.60;;;5.63;;
25169;SDS011;13129;48.012;10.352;2022-10-31T05:20:12;8.40;;;5.20;;
25169;SDS011;13129;48.012;10.352;2022-10-31T05:22:46;6.68;;;5.60;;
25169;SDS011;13129;48.012;10.352;2022-10-31T05:25:13;8.27;;;5.38;;
25169;SDS011;13129;48.012;10.352;2022-10-31T05:27:40;7.57;;;5.35;;
25169;SDS011;13129;48.012;10.352;2022-10-31T05:30:07;5.75;;;4.68;;
25169;SDS011;13129;48.012;10.352;2022-10-31T05:32:37;6.30;;;4.90;;
25169;SDS011;13129;48.012;10.352;2022-10-31T05:35:04;7.38;;;5.07;;
25169;SDS011;13129;48.012;10.352;2022-10-31T05:37:33;7.32;;;5.38;;
25169;SDS011;13129;48.012;10.352;2022-10-31T05:40:01;8.00;;;4.72;;
25169;SDS011;13129;48.012;10.352;2022-10-31T05:42:28;8.20;;;5.15;;
25169;SDS011;13129;48.012;10.352;2022-10-31T05:44:53;5.32;;;4.10;;
25169;SDS011;13129;48.012;10.352;2022-10-31T05:47:19;5.65;;;4.35;;
25169;SDS011;13129;48.012;10.352;2022-10-31T05:49:45;7.82;;;5.93;;
25169;SDS011;13129;48.012;10.352;2022-10-31T05:52:10;7.93;;;5.95;;
25169;SDS011;13129;48.012;10.352;2022-10-31T05:54:36;6.03;;;4.43;;
25169;SDS011;13129;48.012;10.352;2022-10-31T05:57:02;9.98;;;5.18;;
25169;SDS011;13129;48.012;10.352;2022-10-31T05:59:27;11.77;;;5.90;;
25169;SDS011;13129;48.012;10.352;2022-10-31T06:01:53;7.97;;;4.95;;
25169;SDS011;13129;48.012;10.352;2022-10-31T06:04:19;5.95;;;4.13;;
25169;SDS011;13129;48.012;10.352;2022-10-31T06:06:44;6.47;;;3.95;;
25169;SDS011;13129;48.012;10.352;2022-10-31T06:09:10;9.90;;;5.43;;
25169;SDS011;13129;48.012;10.352;2022-10-31T06:11:36;10.23;;;5.03;;
25169;SDS011;13129;48.012;10.352;2022-10-31T06:14:02;6.30;;;4.72;;
25169;SDS011;13129;48.012;10.352;2022-10-31T06:16:28;8.23;;;4.95;;
25169;SDS011;13129;48.012;10.352;2022-10-31T06:18:54;6.45;;;4.63;;
25169;SDS011;13129;48.012;10.352;2022-10-31T06:21:20;7.68;;;5.18;;
25169;SDS011;13129;48.012;10.352;2022-10-31T06:23:45;8.95;;;4.45;;
25169;SDS011;13129;48.012;10.352;2022-10-31T06:26:11;9.10;;;5.15;;
25169;SDS011;13129;48.012;10.352;2022-10-31T06:28:38;6.75;;;4.85;;
25169;SDS011;13129;48.012;10.352;2022-10-31T06:31:03;7.13;;;4.90;;
25169;SDS011;13129;48.012;10.352;2022-10-31T06:33:29;8.20;;;4.55;;
25169;SDS011;13129;48.012;10.352;2022-10-31T06:35:55;10.77;;;5.00;;
25169;SDS011;13129;48.012;10.352;2022-10-31T06:38:21;5.55;;;4.15;;
25169;SDS011;13129;48.012;10.352;2022-10-31T06:40:46;3.88;;;3.45;;
25169;SDS011;13129;48.012;10.352;2022-10-31T06:43:12;6.13;;;3.97;;
25169;SDS011;13129;48.012;10.352;2022-10-31T06:45:39;8.02;;;3.47;;
25169;SDS011;13129;48.012;10.352;2022-10-31T06:48:05;5.07;;;3.92;;
25169;SDS011;13129;48.012;10.352;2022-10-31T06:50:31;5.97;;;3.63;;
25169;SDS011;13129;48.012;10.352;2022-10-31T06:52:57;4.38;;;2.90;;
25169;SDS011;13129;48.012;10.352;2022-10-31T06:55:24;6.10;;;3.53;;
25169;SDS011;13129;48.012;10.352;2022-10-31T06:57:54;4.50;;;3.38;;
25169;SDS011;13129;48.012;10.352;2022-10-31T07:02:55;6.60;;;3.40;;
25169;SDS011;13129;48.012;10.352;2022-10-31T07:05:27;5.90;;;3.47;;
25169;SDS011;13129;48.012;10.352;2022-10-31T07:07:55;6.57;;;4.38;;
25169;SDS011;13129;48.012;10.352;2022-10-31T07:10:25;6.43;;;4.13;;
25169;SDS011;13129;48.012;10.352;2022-10-31T07:12:56;7.78;;;5.03;;
25169;SDS011;13129;48.012;10.352;2022-10-31T07:15:27;12.95;;;10.68;;
25169;SDS011;13129;48.012;10.352;2022-10-31T07:17:59;16.73;;;12.35;;
25169;SDS011;13129;48.012;10.352;2022-10-31T07:20:34;15.13;;;11.85;;
25169;SDS011;13129;48.012;10.352;2022-10-31T07:23:01;15.48;;;11.35;;
25169;SDS011;13129;48.012;10.352;2022-10-31T07:25:41;10.75;;;9.15;;
25169;SDS011;13129;48.012;10.352;2022-10-31T07:28:07;10.02;;;8.38;;
25169;SDS011;13129;48.012;10.352;2022-10-31T07:30:38;15.13;;;8.90;;
25169;SDS011;13129;48.012;10.352;2022-10-31T07:33:34;10.05;;;7.57;;
25169;SDS011;13129;48.012;10.352;2022-10-31T07:36:00;9.05;;;6.57;;
25169;SDS011;13129;48.012;10.352;2022-10-31T07:38:35;11.25;;;7.70;;
25169;SDS011;13129;48.012;10.352;2022-10-31T07:41:15;9.15;;;7.90;;
25169;SDS011;13129;48.012;10.352;2022-10-31T07:43:48;10.45;;;6.70;;
25169;SDS011;13129;48.012;10.352;2022-10-31T07:46:17;8.43;;;6.47;;
25169;SDS011;13129;48.012;10.352;2022-10-31T07:48:43;12.45;;;7.00;;
25169;SDS011;13129;48.012;10.352;2022-10-31T07:51:42;8.98;;;7.25;;
25169;SDS011;13129;48.012;10.352;2022-10-31T08:09:13;8.80;;;5.30;;
25169;SDS011;13129;48.012;10.352;2022-10-31T08:11:45;10.43;;;6.10;;
25169;SDS011;13129;48.012;10.352;2022-10-31T08:14:12;9.10;;;5.68;;
25169;SDS011;13129;48.012;10.352;2022-10-31T08:16:58;8.63;;;6.20;;
25169;SDS011;13129;48.012;10.352;2022-10-31T08:19:33;9.40;;;6.72;;
25169;SDS011;13129;48.012;10.352;2022-10-31T08:21:59;9.77;;;6.22;;
25169;SDS011;13129;48.012;10.352;2022-10-31T08:24:27;12.60;;;5.38;;
25169;SDS011;13129;48.012;10.352;2022-10-31T08:26:53;7.78;;;5.55;;
25169;SDS011;13129;48.012;10.352;2022-10-31T08:29:19;7.78;;;4.88;;
25169;SDS011;13129;48.012;10.352;2022-10-31T08:34:35;11.23;;;4.57;;
25169;SDS011;13129;48.012;10.352;2022-10-31T08:37:01;7.95;;;4.20;;
25169;SDS011;13129;48.012;10.352;2022-10-31T08:39:29;8.05;;;4.20;;
25169;SDS011;13129;48.012;10.352;2022-10-31T08:41:55;9.88;;;4.57;;
25169;SDS011;13129;48.012;10.352;2022-10-31T08:44:21;8.50;;;4.57;;
25169;SDS011;13129;48.012;10.352;2022-10-31T08:46:47;10.25;;;5.63;;
25169;SDS011;13129;48.012;10.352;2022-10-31T08:49:12;8.23;;;6.00;;
25169;SDS011;13129;48.012;10.352;2022-10-31T08:51:38;6.78;;;4.53;;
25169;SDS011;13129;48.012;10.352;2022-10-31T08:54:04;6.65;;;4.22;;
25169;SDS011;13129;48.012;10.352;2022-10-31T08:56:29;8.02;;;4.50;;
25169;SDS011;13129;48.012;10.352;2022-10-31T08:58:55;7.88;;;4.32;;
25169;SDS011;13129;48.012;10.352;2022-10-31T09:01:21;7.40;;;4.35;;
25169;SDS011;13129;48.012;10.352;2022-10-31T09:03:46;7.70;;;4.20;;
25169;SDS011;13129;48.012;10.352;2022-10-31T09:06:12;4.60;;;3.90;;
25169;SDS011;13129;48.012;10.352;2022-10-31T09:08:39;6.82;;;4.20;;
25169;SDS011;13129;48.012;10.352;2022-10-31T09:11:09;8.27;;;4.25;;
25169;SDS011;13129;48.012;10.352;2022-10-31T09:13:35;9.48;;;4.32;;
25169;SDS011;13129;48.012;10.352;2022-10-31T09:16:05;8.40;;;4.18;;
25169;SDS011;13129;48.012;10.352;2022-10-31T09:18:31;6.93;;;4.45;;
25169;SDS011;13129;48.012;10.352;2022-10-31T09:20:57;7.80;;;4.28;;
25169;SDS011;13129;48.012;10.352;2022-10-31T09:23:24;14.57;;;4.63;;
25169;SDS011;13129;48.012;10.352;2022-10-31T09:25:52;5.32;;;3.60;;
25169;SDS011;13129;48.012;10.352;2022-10-31T09:28:19;8.52;;;4.53;;
25169;SDS011;13129;48.012;10.352;2022-10-31T09:30:48;7.15;;;4.72;;
25169;SDS011;13129;48.012;10.352;2022-10-31T09:33:16;6.70;;;4.38;;
25169;SDS011;13129;48.012;10.352;2022-10-31T09:35:44;8.07;;;4.22;;
25169;SDS011;13129;48.012;10.352;2022-10-31T09:38:11;10.70;;;4.78;;
25169;SDS011;13129;48.012;10.352;2022-10-31T09:46:23;5.10;;;3.10;;
25169;SDS011;13129;48.012;10.352;2022-10-31T09:51:23;5.30;;;3.15;;
25169;SDS011;13129;48.012;10.352;2022-10-31T09:54:02;8.35;;;3.47;;
25169;SDS011;13129;48.012;10.352;2022-10-31T09:56:34;5.78;;;3.25;;
25169;SDS011;13129;48.012;10.352;2022-10-31T09:59:02;8.00;;;3.15;;
25169;SDS011;13129;48.012;10.352;2022-10-31T10:04:10;14.63;;;4.13;;
25169;SDS011;13129;48.012;10.352;2022-10-31T10:06:56;7.35;;;3.70;;
25169;SDS011;13129;48.012;10.352;2022-10-31T10:09:24;6.53;;;3.80;;
25169;SDS011;13129;48.012;10.352;2022-10-31T10:11:59;7.95;;;4.40;;
25169;SDS011;13129;48.012;10.352;2022-10-31T10:14:47;7.85;;;3.90;;
25169;SDS011;13129;48.012;10.352;2022-10-31T10:17:25;8.18;;;3.80;;
25169;SDS011;13129;48.012;10.352;2022-10-31T10:20:03;6.35;;;3.92;;
25169;SDS011;13129;48.012;10.352;2022-10-31T10:22:39;7.65;;;3.63;;
25169;SDS011;13129;48.012;10.352;2022-10-31T10:30:34;10.18;;;3.72;;
25169;SDS011;13129;48.012;10.352;2022-10-31T10:33:09;6.65;;;3.90;;
25169;SDS011;13129;48.012;10.352;2022-10-31T10:35:52;7.90;;;3.47;;
25169;SDS011;13129;48.012;10.352;2022-10-31T10:40:54;8.85;;;4.22;;
25169;SDS011;13129;48.012;10.352;2022-10-31T10:51:45;22.25;;;5.68;;
25169;SDS011;13129;48.012;10.352;2022-10-31T11:00:01;10.23;;;3.85;;
25169;SDS011;13129;48.012;10.352;2022-10-31T11:02:43;5.65;;;3.70;;
25169;SDS011;13129;48.012;10.352;2022-10-31T11:05:13;10.20;;;4.10;;
25169;SDS011;13129;48.012;10.352;2022-10-31T11:07:47;8.55;;;3.97;;
25169;SDS011;13129;48.012;10.352;2022-10-31T11:10:13;6.15;;;3.75;;
25169;SDS011;13129;48.012;10.352;2022-10-31T11:12:41;10.90;;;4.72;;
25169;SDS011;13129;48.012;10.352;2022-10-31T11:15:17;7.88;;;3.78;;
25169;SDS011;13129;48.012;10.352;2022-10-31T11:17:47;9.15;;;3.97;;
25169;SDS011;13129;48.012;10.352;2022-10-31T11:22:45;8.80;;;4.57;;
25169;SDS011;13129;48.012;10.352;2022-10-31T11:30:30;6.45;;;4.38;;
25169;SDS011;13129;48.012;10.352;2022-10-31T11:33:01;8.63;;;4.53;;
25169;SDS011;13129;48.012;10.352;2022-10-31T11:35:27;8.23;;;4.05;;
25169;SDS011;13129;48.012;10.352;2022-10-31T11:37:55;7.18;;;4.10;;
25169;SDS011;13129;48.012;10.352;2022-10-31T11:40:24;7.45;;;4.60;;
25169;SDS011;13129;48.012;10.352;2022-10-31T11:42:51;8.15;;;4.60;;
25169;SDS011;13129;48.012;10.352;2022-10-31T11:47:58;8.88;;;4.78;;
25169;SDS011;13129;48.012;10.352;2022-10-31T11:50:27;7.68;;;4.90;;
25169;SDS011;13129;48.012;10.352;2022-10-31T11:52:57;10.02;;;4.70;;
25169;SDS011;13129;48.012;10.352;2022-10-31T11:57:54;10.30;;;5.05;;
25169;SDS011;13129;48.012;10.352;2022-10-31T12:00:36;8.40;;;5.32;;
25169;SDS011;13129;48.012;10.352;2022-10-31T12:05:48;8.52;;;4.80;;
25169;SDS011;13129;48.012;10.352;2022-10-31T12:08:37;7.82;;;4.57;;
25169;SDS011;13129;48.012;10.352;2022-10-31T12:11:11;9.73;;;5.18;;
25169;SDS011;13129;48.012;10.352;2022-10-31T12:14:05;10.63;;;5.95;;
25169;SDS011;13129;48.012;10.352;2022-10-31T12:16:45;10.60;;;5.47;;
25169;SDS011;13129;48.012;10.352;2022-10-31T12:19:43;9.80;;;5.10;;
25169;SDS011;13129;48.012;10.352;2022-10-31T12:30:13;8.88;;;5.93;;
25169;SDS011;13129;48.012;10.352;2022-10-31T12:43:35;9.05;;;5.50;;
25169;SDS011;13129;48.012;10.352;2022-10-31T12:49:31;10.35;;;5.78;;
25169;SDS011;13129;48.012;10.352;2022-10-31T13:00:17;11.00;;;6.07;;
25169;SDS011;13129;48.012;10.352;2022-10-31T13:08:03;8.70;;;5.63;;
25169;SDS011;13129;48.012;10.352;2022-10-31T13:13:19;9.93;;;5.10;;
25169;SDS011;13129;48.012;10.352;2022-10-31T13:16:03;6.53;;;5.43;;
25169;SDS011;13129;48.012;10.352;2022-10-31T13:21:15;9.27;;;5.68;;
25169;SDS011;13129;48.012;10.352;2022-10-31T13:23:51;18.60;;;7.13;;
25169;SDS011;13129;48.012;10.352;2022-10-31T13:29:20;11.93;;;6.72;;
25169;SDS011;13129;48.012;10.352;2022-10-31T13:31:53;10.88;;;6.60;;
25169;SDS011;13129;48.012;10.352;2022-10-31T13:34:22;11.70;;;7.05;;
25169;SDS011;13129;48.012;10.352;2022-10-31T13:40:10;13.05;;;7.53;;
25169;SDS011;13129;48.012;10.352;2022-10-31T13:42:52;11.52;;;7.28;;
25169;SDS011;13129;48.012;10.352;2022-10-31T13:45:26;12.73;;;7.72;;
25169;SDS011;13129;48.012;10.352;2022-10-31T13:50:39;13.15;;;6.63;;
25169;SDS011;13129;48.012;10.352;2022-10-31T13:53:12;14.48;;;6.90;;
25169;SDS011;13129;48.012;10.352;2022-10-31T13:55:49;9.75;;;7.07;;
25169;SDS011;13129;48.012;10.352;2022-10-31T13:58:28;13.52;;;7.35;;
25169;SDS011;13129;48.012;10.352;2022-10-31T14:01:12;13.80;;;7.53;;
25169;SDS011;13129;48.012;10.352;2022-10-31T14:03:45;11.93;;;7.10;;
25169;SDS011;13129;48.012;10.352;2022-10-31T14:06:22;11.88;;;7.82;;
25169;SDS011;13129;48.012;10.352;2022-10-31T14:08:59;15.82;;;8.27;;
25169;SDS011;13129;48.012;10.352;2022-10-31T14:11:28;14.55;;;8.23;;
25169;SDS011;13129;48.012;10.352;2022-10-31T14:13:55;13.68;;;8.75;;
25169;SDS011;13129;48.012;10.352;2022-10-31T14:16:24;13.10;;;8.60;;
25169;SDS011;13129;48.012;10.352;2022-10-31T14:21:31;14.13;;;9.05;;
25169;SDS011;13129;48.012;10.352;2022-10-31T14:24:12;12.10;;;8.63;;
25169;SDS011;13129;48.012;10.352;2022-10-31T14:26:55;12.60;;;8.63;;
25169;SDS011;13129;48.012;10.352;2022-10-31T14:29:28;10.43;;;8.38;;
25169;SDS011;13129;48.012;10.352;2022-10-31T14:31:55;14.73;;;9.07;;
25169;SDS011;13129;48.012;10.352;2022-10-31T14:48:07;9.90;;;7.90;;
25169;SDS011;13129;48.012;10.352;2022-10-31T14:51:02;12.23;;;8.43;;
25169;SDS011;13129;48.012;10.352;2022-10-31T14:53:36;14.52;;;8.07;;
25169;SDS011;13129;48.012;10.352;2022-10-31T14:56:53;14.90;;;8.50;;
25169;SDS011;13129;48.012;10.352;2022-10-31T14:59:18;14.75;;;9.48;;
25169;SDS011;13129;48.012;10.352;2022-10-31T15:02:11;12.15;;;8.60;;
25169;SDS011;13129;48.012;10.352;2022-10-31T15:04:46;12.98;;;8.98;;
25169;SDS011;13129;48.012;10.352;2022-10-31T15:07:25;12.40;;;9.27;;
25169;SDS011;13129;48.012;10.352;2022-10-31T15:15:53;18.00;;;8.85;;
25169;SDS011;13129;48.012;10.352;2022-10-31T15:22:08;12.77;;;9.10;;
25169;SDS011;13129;48.012;10.352;2022-10-31T15:24:58;13.63;;;9.43;;
25169;SDS011;13129;48.012;10.352;2022-10-31T15:27:33;13.35;;;9.13;;
25169;SDS011;13129;48.012;10.352;2022-10-31T15:30:34;12.48;;;9.50;;
25169;SDS011;13129;48.012;10.352;2022-10-31T15:33:40;15.70;;;9.50;;
25169;SDS011;13129;48.012;10.352;2022-10-31T15:39:48;15.88;;;9.65;;
25169;SDS011;13129;48.012;10.352;2022-10-31T15:42:34;14.30;;;9.82;;
25169;SDS011;13129;48.012;10.352;2022-10-31T15:47:37;19.10;;;10.20;;
25169;SDS011;13129;48.012;10.352;2022-10-31T15:50:04;19.13;;;10.85;;
25169;SDS011;13129;48.012;10.352;2022-10-31T15:52:43;15.13;;;10.05;;
25169;SDS011;13129;48.012;10.352;2022-10-31T15:55:19;12.27;;;9.13;;
25169;SDS011;13129;48.012;10.352;2022-10-31T15:57:49;13.52;;;9.75;;
25169;SDS011;13129;48.012;10.352;2022-10-31T16:00:35;14.30;;;9.50;;
25169;SDS011;13129;48.012;10.352;2022-10-31T16:03:10;15.80;;;10.80;;
25169;SDS011;13129;48.012;10.352;2022-10-31T16:05:49;15.93;;;9.13;;
25169;SDS011;13129;48.012;10.352;2022-10-31T16:13:40;16.42;;;9.90;;
25169;SDS011;13129;48.012;10.352;2022-10-31T16:16:45;14.30;;;10.35;;
25169;SDS011;13129;48.012;10.352;2022-10-31T16:47:53;16.10;;;10.10;;
25169;SDS011;13129;48.012;10.352;2022-10-31T16:50:29;13.90;;;11.38;;
25169;SDS011;13129;48.012;10.352;2022-10-31T16:53:11;17.38;;;13.38;;
25169;SDS011;13129;48.012;10.352;2022-10-31T16:55:58;26.75;;;17.17;;
25169;SDS011;13129;48.012;10.352;2022-10-31T16:58:46;17.48;;;14.43;;
25169;SDS011;13129;48.012;10.352;2022-10-31T17:01:21;15.10;;;12.68;;
25169;SDS011;13129;48.012;10.352;2022-10-31T17:03:49;17.17;;;11.38;;
25169;SDS011;13129;48.012;10.352;2022-10-31T17:06:15;14.07;;;9.02;;
25169;SDS011;13129;48.012;10.352;2022-10-31T17:08:41;19.20;;;13.25;;
25169;SDS011;13129;48.012;10.352;2022-10-31T17:11:08;23.65;;;15.32;;
25169;SDS011;13129;48.012;10.352;2022-10-31T17:13:42;25.88;;;15.90;;
25169;SDS011;13129;48.012;10.352;2022-10-31T17:16:07;17.77;;;12.63;;
25169;SDS011;13129;48.012;10.352;2022-10-31T17:18:33;10.27;;;9.02;;
25169;SDS011;13129;48.012;10.352;2022-10-31T17:21:03;15.20;;;12.45;;
25169;SDS011;13129;48.012;10.352;2022-10-31T17:23:30;18.70;;;16.70;;
25169;SDS011;13129;48.012;10.352;2022-10-31T17:25:58;24.02;;;18.42;;
25169;SDS011;13129;48.012;10.352;2022-10-31T17:28:24;18.92;;;16.08;;
25169;SDS011;13129;48.012;10.352;2022-10-31T17:30:50;22.85;;;17.02;;
25169;SDS011;13129;48.012;10.352;2022-10-31T17:33:19;25.35;;;17.05;;
25169;SDS011;13129;48.012;10.352;2022-10-31T17:35:45;17.83;;;15.57;;
25169;SDS011;13129;48.012;10.352;2022-10-31T17:38:14;14.75;;;12.18;;
25169;SDS011;13129;48.012;10.352;2022-10-31T17:40:40;14.60;;;11.15;;
25169;SDS011;13129;48.012;10.352;2022-10-31T17:43:06;12.77;;;7.80;;
25169;SDS011;13129;48.012;10.352;2022-10-31T17:45:40;11.48;;;7.47;;
25169;SDS011;13129;48.012;10.352;2022-10-31T17:48:06;14.13;;;8.85;;
25169;SDS011;13129;48.012;10.352;2022-10-31T17:50:35;11.77;;;7.97;;
25169;SDS011;13129;48.012;10.352;2022-10-31T17:53:01;10.25;;;7.18;;
25169;SDS011;13129;48.012;10.352;2022-10-31T17:55:50;14.00;;;8.35;;
25169;SDS011;13129;48.012;10.352;2022-10-31T17:58:43;14.52;;;8.52;;
25169;SDS011;13129;48.012;10.352;2022-10-31T18:01:10;14.38;;;8.75;;
25169;SDS011;13129;48.012;10.352;2022-10-31T18:03:47;13.93;;;7.22;;
25169;SDS011;13129;48.012;10.352;2022-10-31T18:06:27;11.23;;;8.38;;
25169;SDS011;13129;48.012;10.352;2022-10-31T18:09:03;19.23;;;12.52;;
25169;SDS011;13129;48.012;10.352;2022-10-31T18:11:29;19.33;;;13.75;;
25169;SDS011;13129;48.012;10.352;2022-10-31T18:13:56;22.17;;;16.67;;
25169;SDS011;13129;48.012;10.352;2022-10-31T18:20:04;23.67;;;14.13;;
25169;SDS011;13129;48.012;10.352;2022-10-31T18:27:14;14.40;;;10.73;;
25169;SDS011;13129;48.012;10.352;2022-10-31T18:29:40;15.60;;;9.15;;
25169;SDS011;13129;48.012;10.352;2022-10-31T18:32:06;11.77;;;8.70;;
25169;SDS011;13129;48.012;10.352;2022-10-31T18:34:33;10.70;;;8.80;;
25169;SDS011;13129;48.012;10.352;2022-10-31T18:36:59;12.05;;;9.13;;
25169;SDS011;13129;48.012;10.352;2022-10-31T18:39:24;14.35;;;11.95;;
25169;SDS011;13129;48.012;10.352;2022-10-31T18:41:50;15.82;;;10.65;;
25169;SDS011;13129;48.012;10.352;2022-10-31T18:44:16;12.20;;;8.88;;
25169;SDS011;13129;48.012;10.352;2022-10-31T18:46:41;12.60;;;10.80;;
25169;SDS011;13129;48.012;10.352;2022-10-31T18:49:07;11.07;;;9.77;;
25169;SDS011;13129;48.012;10.352;2022-10-31T18:51:33;11.00;;;9.00;;
25169;SDS011;13129;48.012;10.352;2022-10-31T18:53:59;22.08;;;13.98;;
25169;SDS011;13129;48.012;10.352;2022-10-31T18:56:26;17.88;;;13.43;;
25169;SDS011;13129;48.012;10.352;2022-10-31T18:58:55;17.15;;;14.27;;
25169;SDS011;13129;48.012;10.352;2022-10-31T19:01:22;17.52;;;14.32;;
25169;SDS011;13129;48.012;10.352;2022-10-31T19:03:51;19.58;;;15.43;;
25169;SDS011;13129;48.012;10.352;2022-10-31T19:06:19;22.88;;;15.23;;
25169;SDS011;13129;48.012;10.352;2022-10-31T19:08:44;25.52;;;16.40;;
25169;SDS011;13129;48.012;10.352;2022-10-31T19:11:11;22.70;;;15.45;;
25169;SDS011;13129;48.012;10.352;2022-10-31T19:13:37;18.52;;;15.00;;
25169;SDS011;13129;48.012;10.352;2022-10-31T19:16:05;19.65;;;16.52;;
25169;SDS011;13129;48.012;10.352;2022-10-31T19:18:33;19.40;;;14.15;;
25169;SDS011;13129;48.012;10.352;2022-10-31T19:21:03;25.08;;;18.55;;
25169;SDS011;13129;48.012;10.352;2022-10-31T19:23:33;24.38;;;15.93;;
25169;SDS011;13129;48.012;10.352;2022-10-31T19:25:59;24.50;;;15.35;;
25169;SDS011;13129;48.012;10.352;2022-10-31T19:28:27;23.35;;;17.27;;
25169;SDS011;13129;48.012;10.352;2022-10-31T19:30:54;18.48;;;13.18;;
25169;SDS011;13129;48.012;10.352;2022-10-31T19:33:20;15.23;;;12.02;;
25169;SDS011;13129;48.012;10.352;2022-10-31T19:35:46;23.23;;;14.52;;
25169;SDS011;13129;48.012;10.352;2022-10-31T19:38:12;21.50;;;14.73;;
25169;SDS011;13129;48.012;10.352;2022-10-31T19:40:38;29.95;;;19.65;;
25169;SDS011;13129;48.012;10.352;2022-10-31T19:43:04;23.60;;;18.67;;
25169;SDS011;13129;48.012;10.352;2022-10-31T19:45:29;30.33;;;19.42;;
25169;SDS011;13129;48.012;10.352;2022-10-31T19:47:55;26.52;;;18.48;;
25169;SDS011;13129;48.012;10.352;2022-10-31T19:50:21;24.45;;;15.60;;
25169;SDS011;13129;48.012;10.352;2022-10-31T19:52:47;24.50;;;16.00;;
25169;SDS011;13129;48.012;10.352;2022-10-31T19:55:12;24.27;;;16.30;;
25169;SDS011;13129;48.012;10.352;2022-10-31T19:57:38;24.58;;;17.42;;
25169;SDS011;13129;48.012;10.352;2022-10-31T20:00:04;21.00;;;15.50;;
25169;SDS011;13129;48.012;10.352;2022-10-31T20:02:30;18.38;;;15.77;;
25169;SDS011;13129;48.012;10.352;2022-10-31T20:04:56;22.10;;;16.33;;
25169;SDS011;13129;48.012;10.352;2022-10-31T20:07:23;22.98;;;15.63;;
25169;SDS011;13129;48.012;10.352;2022-10-31T20:09:49;18.98;;;15.98;;
25169;SDS011;13129;48.012;10.352;2022-10-31T20:12:16;22.13;;;16.30;;
25169;SDS011;13129;48.012;10.352;2022-10-31T20:14:42;23.08;;;17.77;;
25169;SDS011;13129;48.012;10.352;2022-10-31T20:17:08;26.63;;;19.85;;
25169;SDS011;13129;48.012;10.352;2022-10-31T20:19:34;22.55;;;18.60;;
25169;SDS011;13129;48.012;10.352;2022-10-31T20:21:59;25.02;;;19.27;;
25169;SDS011;13129;48.012;10.352;2022-10-31T20:24:25;28.17;;;19.70;;
25169;SDS011;13129;48.012;10.352;2022-10-31T20:26:51;26.17;;;19.92;;
25169;SDS011;13129;48.012;10.352;2022-10-31T20:29:17;24.65;;;18.13;;
25169;SDS011;13129;48.012;10.352;2022-10-31T20:31:43;21.40;;;17.35;;
25169;SDS011;13129;48.012;10.352;2022-10-31T20:34:10;22.40;;;17.02;;
25169;SDS011;13129;48.012;10.352;2022-10-31T20:36:36;19.05;;;15.50;;
25169;SDS011;13129;48.012;10.352;2022-10-31T20:39:02;20.33;;;16.15;;
25169;SDS011;13129;48.012;10.352;2022-10-31T20:41:32;24.52;;;17.30;;
25169;SDS011;13129;48.012;10.352;2022-10-31T20:44:12;20.17;;;16.65;;
25169;SDS011;13129;48.012;10.352;2022-10-31T20:46:38;20.90;;;14.13;;
25169;SDS011;13129;48.012;10.352;2022-10-31T20:49:04;22.90;;;15.63;;
25169;SDS011;13129;48.012;10.352;2022-10-31T20:51:30;21.98;;;14.95;;
25169;SDS011;13129;48.012;10.352;2022-10-31T20:53:57;16.45;;;13.27;;
25169;SDS011;13129;48.012;10.352;2022-10-31T20:56:24;16.42;;;13.35;;
25169;SDS011;13129;48.012;10.352;2022-10-31T20:58:55;19.20;;;14.05;;
25169;SDS011;13129;48.012;10.352;2022-10-31T21:01:22;16.95;;;13.32;;
25169;SDS011;13129;48.012;10.352;2022-10-31T21:03:50;20.00;;;13.65;;
25169;SDS011;13129;48.012;10.352;2022-10-31T21:06:17;18.08;;;14.48;;
25169;SDS011;13129;48.012;10.352;2022-10-31T21:08:43;16.98;;;13.52;;
25169;SDS011;13129;48.012;10.352;2022-10-31T21:11:53;18.17;;;13.95;;
25169;SDS011;13129;48.012;10.352;2022-10-31T21:14:19;18.73;;;14.02;;
25169;SDS011;13129;48.012;10.352;2022-10-31T21:16:50;19.35;;;15.15;;
25169;SDS011;13129;48.012;10.352;2022-10-31T21:19:16;19.40;;;14.57;;
25169;SDS011;13129;48.012;10.352;2022-10-31T21:21:50;20.33;;;14.07;;
25169;SDS011;13129;48.012;10.352;2022-10-31T21:24:22;18.92;;;13.63;;
25169;SDS011;13129;48.012;10.352;2022-10-31T21:26:49;18.17;;;14.13;;
25169;SDS011;13129;48.012;10.352;2022-10-31T21:29:16;17.25;;;13.82;;
25169;SDS011;13129;48.012;10.352;2022-10-31T21:31:42;18.67;;;13.63;;
25169;SDS011;13129;48.012;10.352;2022-10-31T21:34:09;17.70;;;13.25;;
25169;SDS011;13129;48.012;10.352;2022-10-31T21:36:35;15.93;;;12.90;;
25169;SDS011;13129;48.012;10.352;2022-10-31T21:39:02;16.73;;;11.70;;
25169;SDS011;13129;48.012;10.352;2022-10-31T21:41:31;17.38;;;12.85;;
25169;SDS011;13129;48.012;10.352;2022-10-31T21:44:02;17.20;;;12.25;;
25169;SDS011;13129;48.012;10.352;2022-10-31T21:46:31;15.23;;;13.07;;
25169;SDS011;13129;48.012;10.352;2022-10-31T21:49:08;17.63;;;14.65;;
25169;SDS011;13129;48.012;10.352;2022-10-31T21:51:44;15.80;;;13.70;;
25169;SDS011;13129;48.012;10.352;2022-10-31T21:54:12;16.13;;;13.02;;
25169;SDS011;13129;48.012;10.352;2022-10-31T21:57:15;15.32;;;11.77;;
25169;SDS011;13129;48.012;10.352;2022-10-31T22:10:16;13.50;;;10.65;;
25169;SDS011;13129;48.012;10.352;2022-10-31T22:13:38;16.55;;;11.27;;
25169;SDS011;13129;48.012;10.352;2022-10-31T22:19:28;13.70;;;11.00;;
25169;SDS011;13129;48.012;10.352;2022-10-31T22:22:15;15.93;;;11.45;;
25169;SDS011;13129;48.012;10.352;2022-10-31T22:25:06;13.77;;;10.70;;
25169;SDS011;13129;48.012;10.352;2022-10-31T22:27:38;16.33;;;12.23;;
25169;SDS011;13129;48.012;10.352;2022-10-31T22:30:06;14.90;;;9.88;;
25169;SDS011;13129;48.012;10.352;2022-10-31T22:33:06;18.20;;;11.30;;
25169;SDS011;13129;48.012;10.352;2022-10-31T22:36:16;16.40;;;10.35;;
25169;SDS011;13129;48.012;10.352;2022-10-31T22:38:54;11.40;;;9.93;;
25169;SDS011;13129;48.012;10.352;2022-10-31T22:42:13;11.90;;;8.45;;